sensor_id;sensor_type;location;lat;lon;timestamp;P1;durP1;ratioP1;P2;durP2;ratioP2
12118;SDS011;6123;48.864;9.200;2023-11-19T00:00:19;2.45;;;2.00;;
12118;SDS011;6123;48.864;9.200;2023-11-19T00:02:45;2.25;;;2.05;;
12118;SDS011;6123;48.864;9.200;2023-11-19T00:05:12;3.22;;;1.90;;
12118;SDS011;6123;48.864;9.200;2023-11-19T00:07:38;1.85;;;1.75;;
12118;SDS011;6123;48.864;9.200;2023-11-19T00:10:17;2.58;;;1.75;;
12118;SDS011;6123;48.864;9.200;2023-11-19T00:12:44;2.97;;;2.20;;
12118;SDS011;6123;48.864;9.200;2023-11-19T00:15:12;2.50;;;1.95;;
12118;SDS011;6123;48.864;9.200;2023-11-19T00:17:38;3.03;;;2.30;;
12118;SDS011;6123;48.864;9.200;2023-11-19T00:20:11;2.42;;;2.10;;
12118;SDS011;6123;48.864;9.200;2023-11-19T00:22:37;2.10;;;1.90;;
12118;SDS011;6123;48.864;9.200;2023-11-19T00:25:03;2.47;;;2.10;;
12118;SDS011;6123;48.864;9.200;2023-11-19T00:27:29;2.03;;;1.88;;
12118;SDS011;6123;48.864;9.200;2023-11-19T00:29:55;2.38;;;1.90;;
12118;SDS011;6123;48.864;9.200;2023-11-19T00:32:21;2.30;;;1.70;;
12118;SDS011;6123;48.864;9.200;2023-11-19T00:34:47;1.63;;;1.50;;
12118;SDS011;6123;48.864;9.200;2023-11-19T00:37:13;1.90;;;1.70;;
12118;SDS011;6123;48.864;9.200;2023-11-19T00:39:40;1.70;;;1.60;;
12118;SDS011;6123;48.864;9.200;2023-11-19T00:42:06;1.63;;;1.52;;
12118;SDS011;6123;48.864;9.200;2023-11-19T00:44:32;1.65;;;1.50;;
12118;SDS011;6123;48.864;9.200;2023-11-19T00:46:57;1.83;;;1.40;;
12118;SDS011;6123;48.864;9.200;2023-11-19T00:49:24;2.58;;;1.70;;
12118;SDS011;6123;48.864;9.200;2023-11-19T00:51:50;4.70;;;1.85;;
12118;SDS011;6123;48.864;9.200;2023-11-19T00:54:15;1.60;;;1.50;;
12118;SDS011;6123;48.864;9.200;2023-11-19T00:56:41;1.63;;;1.52;;
12118;SDS011;6123;48.864;9.200;2023-11-19T00:59:07;1.70;;;1.60;;
12118;SDS011;6123;48.864;9.200;2023-11-19T01:01:32;2.08;;;1.80;;
12118;SDS011;6123;48.864;9.200;2023-11-19T01:03:58;1.77;;;1.67;;
12118;SDS011;6123;48.864;9.200;2023-11-19T01:06:27;1.65;;;1.55;;
12118;SDS011;6123;48.864;9.200;2023-11-19T01:08:53;2.13;;;1.92;;
12118;SDS011;6123;48.864;9.200;2023-11-19T01:11:20;2.00;;;1.88;;
12118;SDS011;6123;48.864;9.200;2023-11-19T01:13:46;2.30;;;2.10;;
12118;SDS011;6123;48.864;9.200;2023-11-19T01:16:11;2.80;;;2.50;;
12118;SDS011;6123;48.864;9.200;2023-11-19T01:18:38;2.60;;;2.40;;
12118;SDS011;6123;48.864;9.200;2023-11-19T01:21:04;3.03;;;2.75;;
12118;SDS011;6123;48.864;9.200;2023-11-19T01:23:30;3.03;;;2.83;;
12118;SDS011;6123;48.864;9.200;2023-11-19T01:25:55;3.05;;;2.65;;
12118;SDS011;6123;48.864;9.200;2023-11-19T01:28:21;4.32;;;2.90;;
12118;SDS011;6123;48.864;9.200;2023-11-19T01:30:46;2.72;;;2.53;;
12118;SDS011;6123;48.864;9.200;2023-11-19T01:33:15;2.60;;;2.40;;
12118;SDS011;6123;48.864;9.200;2023-11-19T01:35:40;2.75;;;2.30;;
12118;SDS011;6123;48.864;9.200;2023-11-19T01:38:06;2.90;;;2.63;;
12118;SDS011;6123;48.864;9.200;2023-11-19T01:40:33;2.90;;;2.60;;
12118;SDS011;6123;48.864;9.200;2023-11-19T01:42:59;2.55;;;2.35;;
12118;SDS011;6123;48.864;9.200;2023-11-19T01:45:28;2.40;;;2.20;;
12118;SDS011;6123;48.864;9.200;2023-11-19T01:47:55;2.45;;;2.28;;
12118;SDS011;6123;48.864;9.200;2023-11-19T01:50:22;1.80;;;1.70;;
12118;SDS011;6123;48.864;9.200;2023-11-19T01:52:50;1.00;;;1.00;;
12118;SDS011;6123;48.864;9.200;2023-11-19T01:55:20;0.82;;;0.57;;
12118;SDS011;6123;48.864;9.200;2023-11-19T01:57:47;1.38;;;0.90;;
12118;SDS011;6123;48.864;9.200;2023-11-19T02:00:14;0.38;;;0.38;;
12118;SDS011;6123;48.864;9.200;2023-11-19T02:02:41;0.47;;;0.38;;
12118;SDS011;6123;48.864;9.200;2023-11-19T02:05:08;1.27;;;0.52;;
12118;SDS011;6123;48.864;9.200;2023-11-19T02:07:34;0.32;;;0.32;;
12118;SDS011;6123;48.864;9.200;2023-11-19T02:09:59;0.40;;;0.40;;
12118;SDS011;6123;48.864;9.200;2023-11-19T02:12:27;0.20;;;0.20;;
12118;SDS011;6123;48.864;9.200;2023-11-19T02:14:53;0.68;;;0.25;;
12118;SDS011;6123;48.864;9.200;2023-11-19T02:17:26;0.32;;;0.30;;
12118;SDS011;6123;48.864;9.200;2023-11-19T02:19:52;0.30;;;0.30;;
12118;SDS011;6123;48.864;9.200;2023-11-19T02:22:18;1.67;;;0.30;;
12118;SDS011;6123;48.864;9.200;2023-11-19T02:24:45;0.20;;;0.20;;
12118;SDS011;6123;48.864;9.200;2023-11-19T02:27:15;1.40;;;0.30;;
12118;SDS011;6123;48.864;9.200;2023-11-19T02:29:49;0.57;;;0.57;;
12118;SDS011;6123;48.864;9.200;2023-11-19T02:32:15;0.38;;;0.10;;
12118;SDS011;6123;48.864;9.200;2023-11-19T02:34:41;0.20;;;0.20;;
12118;SDS011;6123;48.864;9.200;2023-11-19T02:37:06;0.22;;;0.22;;
12118;SDS011;6123;48.864;9.200;2023-11-19T02:39:33;0.30;;;0.30;;
12118;SDS011;6123;48.864;9.200;2023-11-19T02:41:58;0.40;;;0.20;;
12118;SDS011;6123;48.864;9.200;2023-11-19T02:44:24;0.52;;;0.43;;
12118;SDS011;6123;48.864;9.200;2023-11-19T02:46:53;0.25;;;0.25;;
12118;SDS011;6123;48.864;9.200;2023-11-19T02:49:18;2.15;;;2.05;;
12118;SDS011;6123;48.864;9.200;2023-11-19T02:51:44;2.28;;;2.08;;
12118;SDS011;6123;48.864;9.200;2023-11-19T02:54:09;2.75;;;1.70;;
12118;SDS011;6123;48.864;9.200;2023-11-19T02:56:35;1.45;;;1.35;;
12118;SDS011;6123;48.864;9.200;2023-11-19T02:59:02;1.25;;;1.20;;
12118;SDS011;6123;48.864;9.200;2023-11-19T03:01:39;1.70;;;1.60;;
12118;SDS011;6123;48.864;9.200;2023-11-19T03:04:08;1.83;;;1.73;;
12118;SDS011;6123;48.864;9.200;2023-11-19T03:06:37;2.42;;;2.22;;
12118;SDS011;6123;48.864;9.200;2023-11-19T03:09:02;3.10;;;2.70;;
12118;SDS011;6123;48.864;9.200;2023-11-19T03:11:32;2.67;;;2.47;;
12118;SDS011;6123;48.864;9.200;2023-11-19T03:13:58;3.22;;;2.50;;
12118;SDS011;6123;48.864;9.200;2023-11-19T03:16:24;2.80;;;2.60;;
12118;SDS011;6123;48.864;9.200;2023-11-19T03:18:49;2.60;;;2.40;;
12118;SDS011;6123;48.864;9.200;2023-11-19T03:21:15;2.25;;;2.08;;
12118;SDS011;6123;48.864;9.200;2023-11-19T03:23:41;2.05;;;1.95;;
12118;SDS011;6123;48.864;9.200;2023-11-19T03:26:07;2.70;;;2.33;;
12118;SDS011;6123;48.864;9.200;2023-11-19T03:28:33;2.78;;;2.58;;
12118;SDS011;6123;48.864;9.200;2023-11-19T03:30:59;3.10;;;2.90;;
12118;SDS011;6123;48.864;9.200;2023-11-19T03:33:25;4.22;;;3.78;;
12118;SDS011;6123;48.864;9.200;2023-11-19T03:35:53;4.30;;;3.90;;
12118;SDS011;6123;48.864;9.200;2023-11-19T03:38:19;4.93;;;4.43;;
12118;SDS011;6123;48.864;9.200;2023-11-19T03:40:44;4.18;;;3.88;;
12118;SDS011;6123;48.864;9.200;2023-11-19T03:43:10;3.00;;;2.80;;
12118;SDS011;6123;48.864;9.200;2023-11-19T03:45:37;4.07;;;2.90;;
12118;SDS011;6123;48.864;9.200;2023-11-19T03:48:03;3.28;;;2.97;;
12118;SDS011;6123;48.864;9.200;2023-11-19T03:50:29;3.88;;;3.38;;
12118;SDS011;6123;48.864;9.200;2023-11-19T03:52:54;3.33;;;2.88;;
12118;SDS011;6123;48.864;9.200;2023-11-19T03:55:20;2.95;;;2.75;;
12118;SDS011;6123;48.864;9.200;2023-11-19T03:57:45;2.70;;;2.50;;
12118;SDS011;6123;48.864;9.200;2023-11-19T04:00:13;3.35;;;2.50;;
12118;SDS011;6123;48.864;9.200;2023-11-19T04:02:40;3.17;;;2.60;;
12118;SDS011;6123;48.864;9.200;2023-11-19T04:05:05;2.75;;;2.55;;
12118;SDS011;6123;48.864;9.200;2023-11-19T04:07:31;3.20;;;2.47;;
12118;SDS011;6123;48.864;9.200;2023-11-19T04:09:57;2.70;;;2.50;;
12118;SDS011;6123;48.864;9.200;2023-11-19T04:12:23;2.80;;;2.60;;
12118;SDS011;6123;48.864;9.200;2023-11-19T04:14:48;3.08;;;2.83;;
12118;SDS011;6123;48.864;9.200;2023-11-19T04:17:14;3.03;;;2.72;;
12118;SDS011;6123;48.864;9.200;2023-11-19T04:19:39;2.80;;;2.60;;
12118;SDS011;6123;48.864;9.200;2023-11-19T04:22:08;3.38;;;3.17;;
12118;SDS011;6123;48.864;9.200;2023-11-19T04:24:34;3.65;;;3.30;;
12118;SDS011;6123;48.864;9.200;2023-11-19T04:27:00;3.50;;;3.25;;
12118;SDS011;6123;48.864;9.200;2023-11-19T04:29:25;3.15;;;2.95;;
12118;SDS011;6123;48.864;9.200;2023-11-19T04:31:51;4.13;;;3.17;;
12118;SDS011;6123;48.864;9.200;2023-11-19T04:34:16;3.28;;;3.08;;
12118;SDS011;6123;48.864;9.200;2023-11-19T04:36:42;3.50;;;3.20;;
12118;SDS011;6123;48.864;9.200;2023-11-19T04:39:08;3.80;;;3.50;;
12118;SDS011;6123;48.864;9.200;2023-11-19T04:41:35;3.83;;;3.53;;
12118;SDS011;6123;48.864;9.200;2023-11-19T04:44:01;4.03;;;3.45;;
12118;SDS011;6123;48.864;9.200;2023-11-19T04:46:26;4.00;;;3.60;;
12118;SDS011;6123;48.864;9.200;2023-11-19T04:48:52;3.90;;;3.60;;
12118;SDS011;6123;48.864;9.200;2023-11-19T04:51:17;3.20;;;3.00;;
12118;SDS011;6123;48.864;9.200;2023-11-19T04:53:43;3.20;;;2.97;;
12118;SDS011;6123;48.864;9.200;2023-11-19T04:56:09;2.85;;;2.65;;
12118;SDS011;6123;48.864;9.200;2023-11-19T04:58:36;2.40;;;2.20;;
12118;SDS011;6123;48.864;9.200;2023-11-19T05:01:02;2.50;;;2.30;;
12118;SDS011;6123;48.864;9.200;2023-11-19T05:03:31;1.88;;;1.77;;
12118;SDS011;6123;48.864;9.200;2023-11-19T05:05:57;1.50;;;1.42;;
12118;SDS011;6123;48.864;9.200;2023-11-19T05:08:23;1.48;;;1.38;;
12118;SDS011;6123;48.864;9.200;2023-11-19T05:10:48;2.10;;;1.40;;
12118;SDS011;6123;48.864;9.200;2023-11-19T05:13:14;1.00;;;1.00;;
12118;SDS011;6123;48.864;9.200;2023-11-19T05:15:40;1.00;;;1.00;;
12118;SDS011;6123;48.864;9.200;2023-11-19T05:18:05;0.73;;;0.73;;
12118;SDS011;6123;48.864;9.200;2023-11-19T05:20:31;1.67;;;0.90;;
12118;SDS011;6123;48.864;9.200;2023-11-19T05:22:57;0.32;;;0.32;;
12118;SDS011;6123;48.864;9.200;2023-11-19T05:25:25;0.52;;;0.50;;
12118;SDS011;6123;48.864;9.200;2023-11-19T05:27:51;0.50;;;0.50;;
12118;SDS011;6123;48.864;9.200;2023-11-19T05:30:17;0.30;;;0.30;;
12118;SDS011;6123;48.864;9.200;2023-11-19T05:32:43;1.17;;;0.35;;
12118;SDS011;6123;48.864;9.200;2023-11-19T05:35:08;0.30;;;0.30;;
12118;SDS011;6123;48.864;9.200;2023-11-19T05:37:34;0.30;;;0.30;;
12118;SDS011;6123;48.864;9.200;2023-11-19T05:39:59;0.15;;;0.10;;
12118;SDS011;6123;48.864;9.200;2023-11-19T05:42:28;0.10;;;0.10;;
12118;SDS011;6123;48.864;9.200;2023-11-19T05:44:53;0.10;;;0.10;;
12118;SDS011;6123;48.864;9.200;2023-11-19T05:47:19;0.10;;;0.10;;
12118;SDS011;6123;48.864;9.200;2023-11-19T05:49:44;0.00;;;0.00;;
12118;SDS011;6123;48.864;9.200;2023-11-19T05:52:10;0.13;;;0.10;;
12118;SDS011;6123;48.864;9.200;2023-11-19T05:54:37;0.10;;;0.10;;
12118;SDS011;6123;48.864;9.200;2023-11-19T05:57:06;0.17;;;0.10;;
12118;SDS011;6123;48.864;9.200;2023-11-19T05:59:34;0.10;;;0.10;;
12118;SDS011;6123;48.864;9.200;2023-11-19T06:02:01;0.20;;;0.20;;
12118;SDS011;6123;48.864;9.200;2023-11-19T06:04:27;0.20;;;0.20;;
12118;SDS011;6123;48.864;9.200;2023-11-19T06:06:52;1.42;;;0.20;;
12118;SDS011;6123;48.864;9.200;2023-11-19T06:09:19;0.40;;;0.20;;
12118;SDS011;6123;48.864;9.200;2023-11-19T06:11:46;0.38;;;0.20;;
12118;SDS011;6123;48.864;9.200;2023-11-19T06:14:12;0.30;;;0.20;;
12118;SDS011;6123;48.864;9.200;2023-11-19T06:16:37;0.10;;;0.10;;
12118;SDS011;6123;48.864;9.200;2023-11-19T06:19:04;0.20;;;0.20;;
12118;SDS011;6123;48.864;9.200;2023-11-19T06:21:30;0.22;;;0.22;;
12118;SDS011;6123;48.864;9.200;2023-11-19T06:23:55;0.60;;;0.22;;
12118;SDS011;6123;48.864;9.200;2023-11-19T06:26:21;0.38;;;0.20;;
12118;SDS011;6123;48.864;9.200;2023-11-19T06:28:47;0.28;;;0.28;;
12118;SDS011;6123;48.864;9.200;2023-11-19T06:31:12;0.52;;;0.40;;
12118;SDS011;6123;48.864;9.200;2023-11-19T06:33:41;1.65;;;0.40;;
12118;SDS011;6123;48.864;9.200;2023-11-19T06:36:07;0.20;;;0.20;;
12118;SDS011;6123;48.864;9.200;2023-11-19T06:38:34;0.90;;;0.25;;
12118;SDS011;6123;48.864;9.200;2023-11-19T06:40:59;1.08;;;0.25;;
12118;SDS011;6123;48.864;9.200;2023-11-19T06:43:25;0.32;;;0.20;;
12118;SDS011;6123;48.864;9.200;2023-11-19T06:45:50;0.25;;;0.25;;
12118;SDS011;6123;48.864;9.200;2023-11-19T06:48:16;1.38;;;0.32;;
12118;SDS011;6123;48.864;9.200;2023-11-19T06:50:42;0.20;;;0.20;;
12118;SDS011;6123;48.864;9.200;2023-11-19T06:53:07;0.40;;;0.20;;
12118;SDS011;6123;48.864;9.200;2023-11-19T06:55:35;0.65;;;0.28;;
12118;SDS011;6123;48.864;9.200;2023-11-19T06:58:01;0.73;;;0.25;;
12118;SDS011;6123;48.864;9.200;2023-11-19T07:00:27;1.30;;;0.30;;
12118;SDS011;6123;48.864;9.200;2023-11-19T07:02:53;0.32;;;0.30;;
12118;SDS011;6123;48.864;9.200;2023-11-19T07:05:18;0.20;;;0.20;;
12118;SDS011;6123;48.864;9.200;2023-11-19T07:07:44;0.25;;;0.25;;
12118;SDS011;6123;48.864;9.200;2023-11-19T07:10:11;0.25;;;0.20;;
12118;SDS011;6123;48.864;9.200;2023-11-19T07:12:37;1.02;;;0.35;;
12118;SDS011;6123;48.864;9.200;2023-11-19T07:15:03;0.28;;;0.25;;
12118;SDS011;6123;48.864;9.200;2023-11-19T07:17:30;0.10;;;0.10;;
12118;SDS011;6123;48.864;9.200;2023-11-19T07:19:56;0.30;;;0.30;;
12118;SDS011;6123;48.864;9.200;2023-11-19T07:22:24;0.30;;;0.30;;
12118;SDS011;6123;48.864;9.200;2023-11-19T07:24:50;0.43;;;0.28;;
12118;SDS011;6123;48.864;9.200;2023-11-19T07:27:16;0.28;;;0.28;;
12118;SDS011;6123;48.864;9.200;2023-11-19T07:29:43;0.17;;;0.17;;
12118;SDS011;6123;48.864;9.200;2023-11-19T07:32:08;0.40;;;0.40;;
12118;SDS011;6123;48.864;9.200;2023-11-19T07:34:34;0.30;;;0.30;;
12118;SDS011;6123;48.864;9.200;2023-11-19T07:36:59;0.20;;;0.20;;
12118;SDS011;6123;48.864;9.200;2023-11-19T07:39:27;0.30;;;0.20;;
12118;SDS011;6123;48.864;9.200;2023-11-19T07:41:53;0.43;;;0.43;;
12118;SDS011;6123;48.864;9.200;2023-11-19T07:44:19;0.28;;;0.20;;
12118;SDS011;6123;48.864;9.200;2023-11-19T07:46:46;2.13;;;0.30;;
12118;SDS011;6123;48.864;9.200;2023-11-19T07:49:13;0.30;;;0.30;;
12118;SDS011;6123;48.864;9.200;2023-11-19T07:51:39;0.73;;;0.60;;
12118;SDS011;6123;48.864;9.200;2023-11-19T07:54:04;1.25;;;0.63;;
12118;SDS011;6123;48.864;9.200;2023-11-19T07:56:31;2.15;;;0.50;;
12118;SDS011;6123;48.864;9.200;2023-11-19T07:58:59;0.68;;;0.55;;
12118;SDS011;6123;48.864;9.200;2023-11-19T08:01:25;0.95;;;0.30;;
12118;SDS011;6123;48.864;9.200;2023-11-19T08:03:50;0.65;;;0.40;;
12118;SDS011;6123;48.864;9.200;2023-11-19T08:06:16;0.30;;;0.30;;
12118;SDS011;6123;48.864;9.200;2023-11-19T08:08:41;0.28;;;0.25;;
12118;SDS011;6123;48.864;9.200;2023-11-19T08:11:07;1.10;;;0.30;;
12118;SDS011;6123;48.864;9.200;2023-11-19T08:13:34;0.25;;;0.25;;
12118;SDS011;6123;48.864;9.200;2023-11-19T08:15:59;0.50;;;0.40;;
12118;SDS011;6123;48.864;9.200;2023-11-19T08:18:25;1.05;;;0.50;;
12118;SDS011;6123;48.864;9.200;2023-11-19T08:20:51;0.40;;;0.30;;
12118;SDS011;6123;48.864;9.200;2023-11-19T08:23:18;0.85;;;0.20;;
12118;SDS011;6123;48.864;9.200;2023-11-19T08:25:44;0.22;;;0.20;;
12118;SDS011;6123;48.864;9.200;2023-11-19T08:28:10;1.25;;;0.20;;
12118;SDS011;6123;48.864;9.200;2023-11-19T08:30:36;0.32;;;0.28;;
12118;SDS011;6123;48.864;9.200;2023-11-19T08:33:01;0.82;;;0.45;;
12118;SDS011;6123;48.864;9.200;2023-11-19T08:35:30;0.40;;;0.30;;
12118;SDS011;6123;48.864;9.200;2023-11-19T08:37:56;0.52;;;0.50;;
12118;SDS011;6123;48.864;9.200;2023-11-19T08:40:24;0.68;;;0.43;;
12118;SDS011;6123;48.864;9.200;2023-11-19T08:42:50;1.63;;;0.50;;
12118;SDS011;6123;48.864;9.200;2023-11-19T08:45:16;0.63;;;0.60;;
12118;SDS011;6123;48.864;9.200;2023-11-19T08:47:42;0.40;;;0.40;;
12118;SDS011;6123;48.864;9.200;2023-11-19T08:50:10;1.23;;;0.57;;
12118;SDS011;6123;48.864;9.200;2023-11-19T08:52:36;0.77;;;0.55;;
12118;SDS011;6123;48.864;9.200;2023-11-19T08:55:01;0.85;;;0.60;;
12118;SDS011;6123;48.864;9.200;2023-11-19T08:57:28;0.70;;;0.50;;
12118;SDS011;6123;48.864;9.200;2023-11-19T08:59:53;2.15;;;0.60;;
12118;SDS011;6123;48.864;9.200;2023-11-19T09:02:19;0.50;;;0.50;;
12118;SDS011;6123;48.864;9.200;2023-11-19T09:04:44;1.70;;;0.50;;
12118;SDS011;6123;48.864;9.200;2023-11-19T09:07:10;1.02;;;0.75;;
12118;SDS011;6123;48.864;9.200;2023-11-19T09:09:35;1.25;;;0.52;;
12118;SDS011;6123;48.864;9.200;2023-11-19T09:12:01;0.60;;;0.60;;
12118;SDS011;6123;48.864;9.200;2023-11-19T09:14:28;0.40;;;0.40;;
12118;SDS011;6123;48.864;9.200;2023-11-19T09:16:55;1.63;;;0.70;;
12118;SDS011;6123;48.864;9.200;2023-11-19T09:19:21;0.57;;;0.52;;
12118;SDS011;6123;48.864;9.200;2023-11-19T09:21:47;0.73;;;0.50;;
12118;SDS011;6123;48.864;9.200;2023-11-19T09:24:14;0.77;;;0.75;;
12118;SDS011;6123;48.864;9.200;2023-11-19T09:26:40;1.70;;;0.70;;
12118;SDS011;6123;48.864;9.200;2023-11-19T09:29:07;2.05;;;1.20;;
12118;SDS011;6123;48.864;9.200;2023-11-19T09:31:33;1.38;;;0.55;;
12118;SDS011;6123;48.864;9.200;2023-11-19T09:33:58;1.30;;;0.73;;
12118;SDS011;6123;48.864;9.200;2023-11-19T09:36:24;0.50;;;0.40;;
12118;SDS011;6123;48.864;9.200;2023-11-19T09:38:49;0.85;;;0.60;;
12118;SDS011;6123;48.864;9.200;2023-11-19T09:41:15;0.63;;;0.60;;
12118;SDS011;6123;48.864;9.200;2023-11-19T09:43:41;2.08;;;0.60;;
12118;SDS011;6123;48.864;9.200;2023-11-19T09:46:10;0.60;;;0.55;;
12118;SDS011;6123;48.864;9.200;2023-11-19T09:48:38;1.05;;;0.60;;
12118;SDS011;6123;48.864;9.200;2023-11-19T09:51:07;2.17;;;0.70;;
12118;SDS011;6123;48.864;9.200;2023-11-19T09:53:35;1.10;;;0.50;;
12118;SDS011;6123;48.864;9.200;2023-11-19T09:56:02;1.00;;;0.70;;
12118;SDS011;6123;48.864;9.200;2023-11-19T09:58:32;2.38;;;0.70;;
12118;SDS011;6123;48.864;9.200;2023-11-19T10:00:58;1.02;;;0.75;;
12118;SDS011;6123;48.864;9.200;2023-11-19T10:03:24;1.17;;;0.68;;
12118;SDS011;6123;48.864;9.200;2023-11-19T10:06:02;0.73;;;0.70;;
12118;SDS011;6123;48.864;9.200;2023-11-19T10:08:28;1.73;;;0.60;;
12118;SDS011;6123;48.864;9.200;2023-11-19T10:10:54;0.68;;;0.68;;
12118;SDS011;6123;48.864;9.200;2023-11-19T10:13:20;1.70;;;0.90;;
12118;SDS011;6123;48.864;9.200;2023-11-19T10:15:52;2.70;;;0.98;;
12118;SDS011;6123;48.864;9.200;2023-11-19T10:18:23;2.33;;;0.90;;
12118;SDS011;6123;48.864;9.200;2023-11-19T10:20:50;1.25;;;0.80;;
12118;SDS011;6123;48.864;9.200;2023-11-19T10:23:16;1.15;;;0.75;;
12118;SDS011;6123;48.864;9.200;2023-11-19T10:25:41;0.63;;;0.63;;
12118;SDS011;6123;48.864;9.200;2023-11-19T10:28:07;1.90;;;0.80;;
12118;SDS011;6123;48.864;9.200;2023-11-19T10:30:32;2.25;;;0.98;;
12118;SDS011;6123;48.864;9.200;2023-11-19T10:33:08;1.55;;;0.95;;
12118;SDS011;6123;48.864;9.200;2023-11-19T10:35:52;1.75;;;1.10;;
12118;SDS011;6123;48.864;9.200;2023-11-19T10:38:19;1.45;;;0.70;;
12118;SDS011;6123;48.864;9.200;2023-11-19T10:40:44;1.25;;;0.70;;
12118;SDS011;6123;48.864;9.200;2023-11-19T10:43:10;0.98;;;0.82;;
12118;SDS011;6123;48.864;9.200;2023-11-19T10:45:36;0.95;;;0.80;;
12118;SDS011;6123;48.864;9.200;2023-11-19T10:48:03;1.02;;;0.63;;
12118;SDS011;6123;48.864;9.200;2023-11-19T10:50:31;0.98;;;0.63;;
12118;SDS011;6123;48.864;9.200;2023-11-19T10:52:57;1.73;;;0.88;;
12118;SDS011;6123;48.864;9.200;2023-11-19T10:55:25;1.77;;;0.70;;
12118;SDS011;6123;48.864;9.200;2023-11-19T10:57:55;3.50;;;0.70;;
12118;SDS011;6123;48.864;9.200;2023-11-19T11:00:38;2.50;;;1.05;;
12118;SDS011;6123;48.864;9.200;2023-11-19T11:03:22;2.08;;;0.65;;
12118;SDS011;6123;48.864;9.200;2023-11-19T11:05:50;0.93;;;0.50;;
12118;SDS011;6123;48.864;9.200;2023-11-19T11:08:17;1.98;;;0.82;;
12118;SDS011;6123;48.864;9.200;2023-11-19T11:10:56;0.90;;;0.60;;
12118;SDS011;6123;48.864;9.200;2023-11-19T11:13:25;1.60;;;0.80;;
12118;SDS011;6123;48.864;9.200;2023-11-19T11:15:55;0.65;;;0.60;;
12118;SDS011;6123;48.864;9.200;2023-11-19T11:18:24;0.98;;;0.70;;
12118;SDS011;6123;48.864;9.200;2023-11-19T11:20:51;2.38;;;0.82;;
12118;SDS011;6123;48.864;9.200;2023-11-19T11:26:23;2.00;;;0.70;;
12118;SDS011;6123;48.864;9.200;2023-11-19T11:35:04;1.10;;;0.63;;
12118;SDS011;6123;48.864;9.200;2023-11-19T11:37:44;1.45;;;0.80;;
12118;SDS011;6123;48.864;9.200;2023-11-19T11:40:16;0.70;;;0.70;;
12118;SDS011;6123;48.864;9.200;2023-11-19T11:42:43;2.33;;;0.73;;
12118;SDS011;6123;48.864;9.200;2023-11-19T11:45:10;1.17;;;0.90;;
12118;SDS011;6123;48.864;9.200;2023-11-19T11:50:11;2.25;;;0.75;;
12118;SDS011;6123;48.864;9.200;2023-11-19T11:55:24;2.85;;;0.85;;
12118;SDS011;6123;48.864;9.200;2023-11-19T11:57:54;1.15;;;0.70;;
12118;SDS011;6123;48.864;9.200;2023-11-19T12:00:30;1.50;;;0.70;;
12118;SDS011;6123;48.864;9.200;2023-11-19T12:02:56;2.13;;;0.82;;
12118;SDS011;6123;48.864;9.200;2023-11-19T12:05:24;3.88;;;1.10;;
12118;SDS011;6123;48.864;9.200;2023-11-19T12:07:56;1.73;;;0.98;;
12118;SDS011;6123;48.864;9.200;2023-11-19T12:10:26;0.82;;;0.73;;
12118;SDS011;6123;48.864;9.200;2023-11-19T12:12:59;0.70;;;0.50;;
12118;SDS011;6123;48.864;9.200;2023-11-19T12:15:26;1.50;;;0.82;;
12118;SDS011;6123;48.864;9.200;2023-11-19T12:17:53;2.65;;;0.88;;
12118;SDS011;6123;48.864;9.200;2023-11-19T12:20:20;1.45;;;0.82;;
12118;SDS011;6123;48.864;9.200;2023-11-19T12:22:48;1.85;;;0.68;;
12118;SDS011;6123;48.864;9.200;2023-11-19T12:25:14;1.83;;;0.77;;
12118;SDS011;6123;48.864;9.200;2023-11-19T12:27:41;1.08;;;0.63;;
12118;SDS011;6123;48.864;9.200;2023-11-19T12:32:48;0.90;;;0.60;;
12118;SDS011;6123;48.864;9.200;2023-11-19T12:35:14;1.27;;;0.70;;
12118;SDS011;6123;48.864;9.200;2023-11-19T12:37:40;1.52;;;1.20;;
12118;SDS011;6123;48.864;9.200;2023-11-19T12:40:16;2.80;;;0.90;;
12118;SDS011;6123;48.864;9.200;2023-11-19T12:42:46;1.52;;;0.68;;
12118;SDS011;6123;48.864;9.200;2023-11-19T12:45:12;1.10;;;0.77;;
12118;SDS011;6123;48.864;9.200;2023-11-19T12:47:38;2.13;;;0.65;;
12118;SDS011;6123;48.864;9.200;2023-11-19T12:50:05;1.13;;;0.70;;
12118;SDS011;6123;48.864;9.200;2023-11-19T12:52:32;1.05;;;0.70;;
12118;SDS011;6123;48.864;9.200;2023-11-19T12:54:58;1.05;;;0.70;;
12118;SDS011;6123;48.864;9.200;2023-11-19T12:57:40;0.80;;;0.80;;
12118;SDS011;6123;48.864;9.200;2023-11-19T13:00:07;1.02;;;0.93;;
12118;SDS011;6123;48.864;9.200;2023-11-19T13:02:49;1.27;;;1.00;;
12118;SDS011;6123;48.864;9.200;2023-11-19T13:05:23;1.15;;;0.93;;
12118;SDS011;6123;48.864;9.200;2023-11-19T13:08:03;2.38;;;1.15;;
12118;SDS011;6123;48.864;9.200;2023-11-19T13:10:31;1.42;;;0.90;;
12118;SDS011;6123;48.864;9.200;2023-11-19T13:15:33;1.58;;;0.80;;
12118;SDS011;6123;48.864;9.200;2023-11-19T13:18:02;0.77;;;0.75;;
12118;SDS011;6123;48.864;9.200;2023-11-19T13:20:28;1.15;;;1.00;;
12118;SDS011;6123;48.864;9.200;2023-11-19T13:23:01;1.20;;;0.88;;
12118;SDS011;6123;48.864;9.200;2023-11-19T13:25:38;1.30;;;0.90;;
12118;SDS011;6123;48.864;9.200;2023-11-19T13:28:04;0.70;;;0.70;;
12118;SDS011;6123;48.864;9.200;2023-11-19T13:30:30;1.83;;;0.95;;
12118;SDS011;6123;48.864;9.200;2023-11-19T13:32:56;1.55;;;0.80;;
12118;SDS011;6123;48.864;9.200;2023-11-19T13:35:22;1.23;;;0.88;;
12118;SDS011;6123;48.864;9.200;2023-11-19T13:37:48;0.98;;;0.93;;
12118;SDS011;6123;48.864;9.200;2023-11-19T13:40:13;2.40;;;1.13;;
12118;SDS011;6123;48.864;9.200;2023-11-19T13:42:40;1.25;;;0.80;;
12118;SDS011;6123;48.864;9.200;2023-11-19T13:45:10;0.77;;;0.77;;
12118;SDS011;6123;48.864;9.200;2023-11-19T13:47:41;1.92;;;0.80;;
12118;SDS011;6123;48.864;9.200;2023-11-19T13:50:12;2.05;;;0.70;;
12118;SDS011;6123;48.864;9.200;2023-11-19T13:52:42;0.70;;;0.70;;
12118;SDS011;6123;48.864;9.200;2023-11-19T13:55:11;1.90;;;0.68;;
12118;SDS011;6123;48.864;9.200;2023-11-19T13:57:37;0.95;;;0.55;;
12118;SDS011;6123;48.864;9.200;2023-11-19T14:00:03;1.35;;;0.93;;
12118;SDS011;6123;48.864;9.200;2023-11-19T14:02:41;1.55;;;0.90;;
12118;SDS011;6123;48.864;9.200;2023-11-19T14:05:08;0.88;;;0.77;;
12118;SDS011;6123;48.864;9.200;2023-11-19T14:07:34;1.45;;;1.00;;
12118;SDS011;6123;48.864;9.200;2023-11-19T14:10:00;1.33;;;0.68;;
12118;SDS011;6123;48.864;9.200;2023-11-19T14:12:26;1.38;;;0.73;;
12118;SDS011;6123;48.864;9.200;2023-11-19T14:14:51;2.05;;;1.00;;
12118;SDS011;6123;48.864;9.200;2023-11-19T14:17:17;0.98;;;0.70;;
12118;SDS011;6123;48.864;9.200;2023-11-19T14:19:43;2.88;;;0.75;;
12118;SDS011;6123;48.864;9.200;2023-11-19T14:22:09;0.80;;;0.45;;
12118;SDS011;6123;48.864;9.200;2023-11-19T14:24:35;0.70;;;0.60;;
12118;SDS011;6123;48.864;9.200;2023-11-19T14:27:01;1.30;;;0.68;;
12118;SDS011;6123;48.864;9.200;2023-11-19T14:29:27;1.45;;;0.80;;
12118;SDS011;6123;48.864;9.200;2023-11-19T14:31:54;1.08;;;0.63;;
12118;SDS011;6123;48.864;9.200;2023-11-19T14:34:20;2.58;;;0.60;;
12118;SDS011;6123;48.864;9.200;2023-11-19T14:36:46;2.53;;;0.88;;
12118;SDS011;6123;48.864;9.200;2023-11-19T14:39:12;1.00;;;0.90;;
12118;SDS011;6123;48.864;9.200;2023-11-19T14:41:38;1.92;;;1.08;;
12118;SDS011;6123;48.864;9.200;2023-11-19T14:44:04;0.70;;;0.60;;
12118;SDS011;6123;48.864;9.200;2023-11-19T14:46:30;1.13;;;0.80;;
12118;SDS011;6123;48.864;9.200;2023-11-19T14:48:56;1.40;;;0.50;;
12118;SDS011;6123;48.864;9.200;2023-11-19T14:51:21;2.15;;;0.70;;
12118;SDS011;6123;48.864;9.200;2023-11-19T14:53:47;2.90;;;0.80;;
12118;SDS011;6123;48.864;9.200;2023-11-19T14:56:12;1.50;;;0.75;;
12118;SDS011;6123;48.864;9.200;2023-11-19T14:58:39;2.17;;;0.75;;
12118;SDS011;6123;48.864;9.200;2023-11-19T15:01:04;0.98;;;0.77;;
12118;SDS011;6123;48.864;9.200;2023-11-19T15:03:31;2.53;;;0.95;;
12118;SDS011;6123;48.864;9.200;2023-11-19T15:05:57;1.38;;;1.00;;
12118;SDS011;6123;48.864;9.200;2023-11-19T15:08:23;1.95;;;1.02;;
12118;SDS011;6123;48.864;9.200;2023-11-19T15:10:48;1.83;;;0.90;;
12118;SDS011;6123;48.864;9.200;2023-11-19T15:13:14;1.30;;;0.73;;
12118;SDS011;6123;48.864;9.200;2023-11-19T15:15:39;1.23;;;0.90;;
12118;SDS011;6123;48.864;9.200;2023-11-19T15:18:05;1.73;;;0.77;;